PWSweather.com
Personal Weather Stations
Station Observations
INORDPAS37
Bondues, BonduesFR 59910

BonduesBonduesFR 59910

Lat: 50.7, Lon: 3.09

Elevation: 102

Station Type: Netatmo

http://bondues.meteoamikuze.com

High Low Average
Temperature 79.0°F26.1°F 63.1°F17.3°F 71.1°F21.7°F
Dew Point 61.9°F16.6°F 48.7°F9.3°F 54.8°F12.7°F
Winds 5.6 mph -9.0 mph - 0.7 mph 1.1 mph 2.8 mph 4.5 mph
Wind Gusts 18.6 mph29.9 mph 1.3 mph2.1 mph 7.5 mph12.1 mph
Humidity 65% 53% 61%
Pressure 30.00 in1015.90 in 29.79 in1008.80 in -
Precipitation 0.01 in0.30 in - -
Hour Temp Dew Point Humidity Winds Wind Gusts Pressure Precip Precip Rate Daily Precip Total
12:02 AM 68.9°F20.5°C 52.5°F11.4°C 60% 0.7 mph E1.1 kmh E 1.3 mph2.1 kmh 29.85 in1010.8 mb 0.00 in0.0 mm 0.00 in0.0 mm 0.00 in0.0 mm
12:22 AM 68.0°F20.0°C 52.2°F11.2°C 61% 0.7 mph E1.1 kmh E 1.8 mph2.9 kmh 29.84 in1010.5 mb 0.00 in0.0 mm 0.00 in0.0 mm 0.00 in0.0 mm
12:42 AM 67.6°F19.8°C 51.8°F11.0°C 61% 1.3 mph SE2.1 kmh SE 3.1 mph5.0 kmh 29.84 in1010.5 mb 0.00 in0.0 mm 0.00 in0.0 mm 0.00 in0.0 mm
01:02 AM 67.8°F19.9°C 52.3°F11.3°C 62% 1.3 mph SSE2.1 kmh SSE 2.5 mph4.0 kmh 29.83 in1010.2 mb 0.00 in0.0 mm 0.00 in0.0 mm 0.00 in0.0 mm
01:22 AM 68.0°F20.0°C 52.5°F11.4°C 62% 1.3 mph S2.1 kmh S 2.5 mph4.0 kmh 29.83 in1010.2 mb 0.00 in0.0 mm 0.00 in0.0 mm 0.00 in0.0 mm
01:42 AM 67.6°F19.8°C 52.2°F11.2°C 62% 0.7 mph S1.1 kmh S 1.8 mph2.9 kmh 29.83 in1010.2 mb 0.00 in0.0 mm 0.00 in0.0 mm 0.00 in0.0 mm
02:02 AM 67.3°F19.6°C 51.8°F11.0°C 62% 1.3 mph SSE2.1 kmh SSE 2.5 mph4.0 kmh 29.83 in1010.2 mb 0.00 in0.0 mm 0.00 in0.0 mm 0.00 in0.0 mm
02:23 AM 66.7°F19.3°C 51.3°F10.7°C 62% 1.3 mph SSE2.1 kmh SSE 3.1 mph5.0 kmh 29.82 in1009.8 mb 0.00 in0.0 mm 0.00 in0.0 mm 0.00 in0.0 mm
02:42 AM 66.4°F19.1°C 51.4°F10.8°C 63% 1.8 mph SSE2.9 kmh SSE 3.8 mph6.1 kmh 29.82 in1009.8 mb 0.00 in0.0 mm 0.00 in0.0 mm 0.00 in0.0 mm
03:03 AM 66.6°F19.2°C 51.6°F10.9°C 63% 1.8 mph SE2.9 kmh SE 4.3 mph6.9 kmh 29.80 in1009.1 mb 0.00 in0.0 mm 0.00 in0.0 mm 0.00 in0.0 mm
03:22 AM 66.6°F19.2°C 51.6°F10.9°C 63% 2.5 mph SSE4.0 kmh SSE 4.9 mph7.9 kmh 29.80 in1009.1 mb 0.00 in0.0 mm 0.00 in0.0 mm 0.00 in0.0 mm
03:42 AM 66.6°F19.2°C 51.6°F10.9°C 63% 1.8 mph SSE2.9 kmh SSE 3.8 mph6.1 kmh 29.80 in1009.1 mb 0.00 in0.0 mm 0.00 in0.0 mm 0.00 in0.0 mm
04:02 AM 66.6°F19.2°C 51.6°F10.9°C 63% 2.5 mph SSE4.0 kmh SSE 4.3 mph6.9 kmh 29.80 in1009.1 mb 0.00 in0.0 mm 0.00 in0.0 mm 0.00 in0.0 mm
04:22 AM 66.4°F19.1°C 51.4°F10.8°C 63% 2.5 mph SSE4.0 kmh SSE 4.3 mph6.9 kmh 29.80 in1009.1 mb 0.00 in0.0 mm 0.00 in0.0 mm 0.00 in0.0 mm
04:42 AM 66.6°F19.2°C 51.6°F10.9°C 63% 2.5 mph SSE4.0 kmh SSE 4.9 mph7.9 kmh 29.79 in1008.8 mb 0.00 in0.0 mm 0.00 in0.0 mm 0.00 in0.0 mm
05:02 AM 66.7°F19.3°C 51.8°F11.0°C 63% 2.5 mph SSE4.0 kmh SSE 4.3 mph6.9 kmh 29.79 in1008.8 mb 0.00 in0.0 mm 0.00 in0.0 mm 0.00 in0.0 mm
05:22 AM 66.7°F19.3°C 51.8°F11.0°C 63% 2.5 mph SSE4.0 kmh SSE 5.6 mph9.0 kmh 29.79 in1008.8 mb 0.00 in0.0 mm 0.00 in0.0 mm 0.00 in0.0 mm
05:42 AM 66.9°F19.4°C 51.8°F11.0°C 63% 2.5 mph S4.0 kmh S 4.3 mph6.9 kmh 29.80 in1009.1 mb 0.00 in0.0 mm 0.00 in0.0 mm 0.00 in0.0 mm
06:02 AM 66.9°F19.4°C 51.8°F11.0°C 63% 2.5 mph W4.0 kmh W 8.1 mph13.0 kmh 29.82 in1009.8 mb 0.00 in0.0 mm 0.00 in0.0 mm 0.00 in0.0 mm
06:23 AM 66.2°F19.0°C 51.3°F10.7°C 63% 0.7 mph W1.1 kmh W 1.8 mph2.9 kmh 29.81 in1009.5 mb 0.00 in0.0 mm 0.00 in0.0 mm 0.00 in0.0 mm
06:42 AM 66.0°F18.9°C 51.4°F10.8°C 64% 0.7 mph SE1.1 kmh SE 1.3 mph2.1 kmh 29.81 in1009.5 mb 0.00 in0.0 mm 0.00 in0.0 mm 0.00 in0.0 mm
07:02 AM 66.2°F19.0°C 51.6°F10.9°C 64% 1.3 mph SE2.1 kmh SE 2.5 mph4.0 kmh 29.80 in1009.1 mb 0.00 in0.0 mm 0.00 in0.0 mm 0.00 in0.0 mm
07:22 AM 66.6°F19.2°C 52.3°F11.3°C 65% 0.7 mph SSE1.1 kmh SSE 1.8 mph2.9 kmh 29.80 in1009.1 mb 0.00 in0.0 mm 0.00 in0.0 mm 0.00 in0.0 mm
07:43 AM 67.1°F19.5°C 52.9°F11.6°C 65% 1.3 mph SSE2.1 kmh SSE 2.5 mph4.0 kmh 29.80 in1009.1 mb 0.00 in0.0 mm 0.00 in0.0 mm 0.00 in0.0 mm
08:03 AM 67.8°F19.9°C 53.6°F12.0°C 65% 1.3 mph SE2.1 kmh SE 3.8 mph6.1 kmh 29.80 in1009.1 mb 0.00 in0.0 mm 0.00 in0.0 mm 0.00 in0.0 mm
08:22 AM 68.2°F20.1°C 54.0°F12.2°C 65% 1.8 mph SE2.9 kmh SE 3.8 mph6.1 kmh 29.80 in1009.1 mb 0.00 in0.0 mm 0.00 in0.0 mm 0.00 in0.0 mm
08:43 AM 68.0°F20.0°C 53.8°F12.1°C 65% 2.5 mph SE4.0 kmh SE 5.6 mph9.0 kmh 29.80 in1009.1 mb 0.00 in0.0 mm 0.00 in0.0 mm 0.00 in0.0 mm
09:02 AM 68.4°F20.2°C 53.6°F12.0°C 64% 3.8 mph SSE6.1 kmh SSE 7.4 mph11.9 kmh 29.80 in1009.1 mb 0.00 in0.0 mm 0.00 in0.0 mm 0.00 in0.0 mm
09:23 AM 70.7°F21.5°C 55.9°F13.3°C 64% 3.1 mph S5.0 kmh S 6.9 mph11.1 kmh 29.80 in1009.1 mb 0.00 in0.0 mm 0.00 in0.0 mm 0.00 in0.0 mm
09:43 AM 72.7°F22.6°C 57.4°F14.1°C 63% 3.1 mph SSE5.0 kmh SSE 4.9 mph7.9 kmh 29.81 in1009.5 mb 0.00 in0.0 mm 0.00 in0.0 mm 0.00 in0.0 mm
10:03 AM 74.5°F23.6°C 59.0°F15.0°C 63% 1.8 mph SSE2.9 kmh SSE 4.3 mph6.9 kmh 29.80 in1009.1 mb 0.00 in0.0 mm 0.00 in0.0 mm 0.00 in0.0 mm
10:23 AM 75.7°F24.3°C 59.7°F15.4°C 62% 2.5 mph SW4.0 kmh SW 5.6 mph9.0 kmh 29.80 in1009.1 mb 0.00 in0.0 mm 0.00 in0.0 mm 0.00 in0.0 mm
10:43 AM 78.3°F25.7°C 61.7°F16.5°C 61% 2.5 mph SW4.0 kmh SW 6.9 mph11.1 kmh 29.80 in1009.1 mb 0.00 in0.0 mm 0.00 in0.0 mm 0.00 in0.0 mm
11:03 AM 78.8°F26.0°C 61.9°F16.6°C 60% 3.8 mph SW6.1 kmh SW 9.4 mph15.1 kmh 29.80 in1009.1 mb 0.00 in0.0 mm 0.00 in0.0 mm 0.00 in0.0 mm
11:23 AM 78.3°F25.7°C 61.3°F16.3°C 60% 1.8 mph WSW2.9 kmh WSW 4.9 mph7.9 kmh 29.80 in1009.1 mb 0.00 in0.0 mm 0.00 in0.0 mm 0.00 in0.0 mm
11:43 AM 77.7°F25.4°C 60.8°F16.0°C 60% 3.1 mph SW5.0 kmh SW 8.7 mph14.0 kmh 29.80 in1009.1 mb 0.00 in0.0 mm 0.00 in0.0 mm 0.00 in0.0 mm
12:04 PM 77.7°F25.4°C 60.8°F16.0°C 60% 2.5 mph W4.0 kmh W 5.6 mph9.0 kmh 29.81 in1009.5 mb 0.00 in0.0 mm 0.00 in0.0 mm 0.00 in0.0 mm
12:23 PM 77.9°F25.5°C 61.0°F16.1°C 60% 3.8 mph WSW6.1 kmh WSW 8.7 mph14.0 kmh 29.81 in1009.5 mb 0.00 in0.0 mm 0.00 in0.0 mm 0.00 in0.0 mm
12:44 PM 77.2°F25.1°C 60.3°F15.7°C 60% 3.8 mph WSW6.1 kmh WSW 11.2 mph18.0 kmh 29.82 in1009.8 mb 0.00 in0.0 mm 0.00 in0.0 mm 0.00 in0.0 mm
01:03 PM 76.3°F24.6°C 59.5°F15.3°C 60% 4.3 mph SW6.9 kmh SW 13.0 mph20.9 kmh 29.82 in1009.8 mb 0.00 in0.0 mm 0.00 in0.0 mm 0.00 in0.0 mm
01:24 PM 75.0°F23.9°C 58.6°F14.8°C 61% 4.3 mph W6.9 kmh W 13.6 mph21.9 kmh 29.83 in1010.2 mb 0.00 in0.0 mm 0.01 in0.3 mm 0.00 in0.0 mm
01:44 PM 75.2°F24.0°C 58.8°F14.9°C 61% 4.9 mph WSW7.9 kmh WSW 13.0 mph20.9 kmh 29.83 in1010.2 mb 0.00 in0.0 mm 0.00 in0.0 mm 0.00 in0.0 mm
02:05 PM 77.2°F25.1°C 59.9°F15.5°C 59% 4.9 mph WSW7.9 kmh WSW 14.3 mph23.0 kmh 29.83 in1010.2 mb 0.00 in0.0 mm 0.00 in0.0 mm 0.00 in0.0 mm
02:25 PM 78.4°F25.8°C 60.6°F15.9°C 58% 5.6 mph WSW9.0 kmh WSW 15.0 mph24.1 kmh 29.83 in1010.2 mb 0.00 in0.0 mm 0.00 in0.0 mm 0.00 in0.0 mm
02:45 PM 78.4°F25.8°C 60.6°F15.9°C 58% 5.6 mph WSW9.0 kmh WSW 13.6 mph21.9 kmh 29.84 in1010.5 mb 0.00 in0.0 mm 0.00 in0.0 mm 0.00 in0.0 mm
03:06 PM 79.0°F26.1°C 60.6°F15.9°C 57% 4.3 mph WSW6.9 kmh WSW 13.0 mph20.9 kmh 29.84 in1010.5 mb 0.00 in0.0 mm 0.00 in0.0 mm 0.00 in0.0 mm
03:25 PM 78.8°F26.0°C 60.4°F15.8°C 57% 4.9 mph WSW7.9 kmh WSW 11.9 mph19.2 kmh 29.85 in1010.8 mb 0.00 in0.0 mm 0.00 in0.0 mm 0.00 in0.0 mm
03:46 PM 78.8°F26.0°C 60.4°F15.8°C 57% 4.9 mph WSW7.9 kmh WSW 13.0 mph20.9 kmh 29.86 in1011.2 mb 0.00 in0.0 mm 0.00 in0.0 mm 0.00 in0.0 mm
04:09 PM 78.3°F25.7°C 58.3°F14.6°C 53% 4.9 mph W7.9 kmh W 14.3 mph23.0 kmh 29.87 in1011.5 mb 0.00 in0.0 mm 0.00 in0.0 mm 0.00 in0.0 mm
04:19 PM 77.9°F25.5°C 58.5°F14.7°C 54% 4.9 mph WSW7.9 kmh WSW 15.4 mph24.8 kmh 29.87 in1011.5 mb 0.00 in0.0 mm 0.00 in0.0 mm 0.00 in0.0 mm
04:40 PM 77.7°F25.4°C 58.3°F14.6°C 54% 4.3 mph W6.9 kmh W 11.9 mph19.2 kmh 29.88 in1011.9 mb 0.00 in0.0 mm 0.00 in0.0 mm 0.00 in0.0 mm
05:00 PM 77.5°F25.3°C 58.1°F14.5°C 54% 4.3 mph WSW6.9 kmh WSW 18.6 mph29.9 kmh 29.89 in1012.2 mb 0.00 in0.0 mm 0.00 in0.0 mm 0.00 in0.0 mm
05:21 PM 76.6°F24.8°C 57.2°F14.0°C 54% 4.3 mph WSW6.9 kmh WSW 13.6 mph21.9 kmh 29.89 in1012.2 mb 0.00 in0.0 mm 0.00 in0.0 mm 0.00 in0.0 mm
05:40 PM 76.5°F24.7°C 57.0°F13.9°C 54% 3.8 mph WSW6.1 kmh WSW 11.9 mph19.2 kmh 29.90 in1012.5 mb 0.00 in0.0 mm 0.00 in0.0 mm 0.00 in0.0 mm
06:03 PM 75.9°F24.4°C 57.0°F13.9°C 55% 4.9 mph WSW7.9 kmh WSW 15.4 mph24.8 kmh 29.90 in1012.5 mb 0.00 in0.0 mm 0.00 in0.0 mm 0.00 in0.0 mm
06:24 PM 75.4°F24.1°C 56.5°F13.6°C 55% 3.8 mph W6.1 kmh W 11.9 mph19.2 kmh 29.90 in1012.5 mb 0.00 in0.0 mm 0.00 in0.0 mm 0.00 in0.0 mm
06:44 PM 73.6°F23.1°C 55.6°F13.1°C 57% 3.8 mph W6.1 kmh W 8.7 mph14.0 kmh 29.91 in1012.9 mb 0.00 in0.0 mm 0.00 in0.0 mm 0.00 in0.0 mm
07:04 PM 72.5°F22.5°C 54.7°F12.6°C 57% 4.3 mph W6.9 kmh W 13.6 mph21.9 kmh 29.91 in1012.9 mb 0.00 in0.0 mm 0.00 in0.0 mm 0.00 in0.0 mm
07:24 PM 71.6°F22.0°C 54.1°F12.3°C 58% 3.8 mph W6.1 kmh W 9.8 mph15.8 kmh 29.92 in1013.2 mb 0.00 in0.0 mm 0.00 in0.0 mm 0.00 in0.0 mm
07:47 PM 70.5°F21.4°C 53.6°F12.0°C 59% 4.3 mph WSW6.9 kmh WSW 12.5 mph20.1 kmh 29.93 in1013.5 mb 0.00 in0.0 mm 0.00 in0.0 mm 0.00 in0.0 mm
08:02 PM 70.2°F21.2°C 53.2°F11.8°C 59% 3.8 mph WSW6.1 kmh WSW 9.8 mph15.8 kmh 29.94 in1013.9 mb 0.00 in0.0 mm 0.00 in0.0 mm 0.00 in0.0 mm
08:23 PM 69.4°F20.8°C 53.1°F11.7°C 60% 2.5 mph WSW4.0 kmh WSW 5.6 mph9.0 kmh 29.94 in1013.9 mb 0.00 in0.0 mm 0.00 in0.0 mm 0.00 in0.0 mm
08:43 PM 68.5°F20.3°C 52.2°F11.2°C 60% 2.5 mph W4.0 kmh W 9.4 mph15.1 kmh 29.96 in1014.6 mb 0.00 in0.0 mm 0.00 in0.0 mm 0.00 in0.0 mm
09:04 PM 67.8°F19.9°C 52.0°F11.1°C 61% 1.8 mph WSW2.9 kmh WSW 6.9 mph11.1 kmh 29.97 in1014.9 mb 0.00 in0.0 mm 0.00 in0.0 mm 0.00 in0.0 mm
09:24 PM 66.9°F19.4°C 51.1°F10.6°C 61% 3.1 mph SW5.0 kmh SW 8.1 mph13.0 kmh 29.96 in1014.6 mb 0.00 in0.0 mm 0.00 in0.0 mm 0.00 in0.0 mm
09:44 PM 66.2°F19.0°C 50.7°F10.4°C 62% 2.5 mph SW4.0 kmh SW 9.4 mph15.1 kmh 29.97 in1014.9 mb 0.00 in0.0 mm 0.00 in0.0 mm 0.00 in0.0 mm
10:04 PM 65.7°F18.7°C 50.4°F10.2°C 62% 1.8 mph SW2.9 kmh SW 5.6 mph9.0 kmh 29.97 in1014.9 mb 0.00 in0.0 mm 0.00 in0.0 mm 0.00 in0.0 mm
10:25 PM 65.3°F18.5°C 50.4°F10.2°C 63% 2.5 mph SW4.0 kmh SW 6.9 mph11.1 kmh 29.98 in1015.2 mb 0.00 in0.0 mm 0.00 in0.0 mm 0.00 in0.0 mm
10:44 PM 64.8°F18.2°C 49.8°F9.9°C 63% 1.8 mph WSW2.9 kmh WSW 4.3 mph6.9 kmh 29.98 in1015.2 mb 0.00 in0.0 mm 0.00 in0.0 mm 0.00 in0.0 mm
11:05 PM 64.4°F18.0°C 49.5°F9.7°C 63% 1.8 mph WSW2.9 kmh WSW 7.4 mph11.9 kmh 29.99 in1015.6 mb 0.00 in0.0 mm 0.00 in0.0 mm 0.00 in0.0 mm
11:25 PM 63.7°F17.6°C 49.3°F9.6°C 64% 1.8 mph W2.9 kmh W 4.3 mph6.9 kmh 30.00 in1015.9 mb 0.00 in0.0 mm 0.00 in0.0 mm 0.00 in0.0 mm
11:45 PM 63.1°F17.3°C 48.7°F9.3°C 64% 1.8 mph SW2.9 kmh SW 5.6 mph9.0 kmh 30.00 in1015.9 mb 0.00 in0.0 mm 0.00 in0.0 mm 0.00 in0.0 mm